createdAt,value
2023-01-30T00:00:02.408Z,100.00
2023-01-30T00:02:28.732Z,100.00
2023-01-30T00:04:55.046Z,100.00
2023-01-30T00:07:21.349Z,100.00
2023-01-30T00:09:47.629Z,100.00
2023-01-30T00:12:13.888Z,100.00
2023-01-30T00:14:40.171Z,100.00
2023-01-30T00:17:06.451Z,100.00
2023-01-30T00:19:32.783Z,100.00
2023-01-30T00:21:59.108Z,100.00
2023-01-30T00:24:26.003Z,100.00
2023-01-30T00:26:52.411Z,100.00
2023-01-30T00:29:18.771Z,100.00
2023-01-30T00:31:45.262Z,100.00
2023-01-30T00:34:11.584Z,100.00
2023-01-30T00:36:37.938Z,100.00
2023-01-30T00:39:04.287Z,100.00
2023-01-30T00:41:50.512Z,100.00
2023-01-30T00:44:35.452Z,100.00
2023-01-30T00:47:08.836Z,100.00
2023-01-30T00:49:36.410Z,100.00
2023-01-30T00:52:03.216Z,100.00
2023-01-30T00:54:29.637Z,100.00
2023-01-30T00:56:56.186Z,100.00
2023-01-30T00:59:22.583Z,100.00
2023-01-30T01:01:48.945Z,100.00
2023-01-30T01:04:15.276Z,100.00
2023-01-30T01:06:41.504Z,100.00
2023-01-30T01:09:08.794Z,100.00
2023-01-30T01:11:35.142Z,100.00
2023-01-30T01:14:02.263Z,100.00
2023-01-30T01:16:29.628Z,100.00
2023-01-30T01:18:56.121Z,100.00
2023-01-30T01:21:22.821Z,100.00
2023-01-30T01:23:50.237Z,100.00
2023-01-30T01:26:16.636Z,100.00
2023-01-30T01:28:42.906Z,100.00
2023-01-30T01:31:09.896Z,100.00
2023-01-30T01:33:36.302Z,100.00
2023-01-30T01:36:04.657Z,100.00
2023-01-30T01:38:31.146Z,100.00
2023-01-30T01:41:04.899Z,100.00
2023-01-30T01:43:33.005Z,100.00
2023-01-30T01:46:06.376Z,100.00
2023-01-30T01:48:34.953Z,100.00
2023-01-30T01:51:03.511Z,100.00
2023-01-30T01:53:36.189Z,100.00
2023-01-30T01:56:03.960Z,100.00
2023-01-30T01:58:39.306Z,100.00
2023-01-30T02:01:06.181Z,100.00
2023-01-30T02:03:34.969Z,100.00
2023-01-30T02:06:02.733Z,100.00
2023-01-30T02:08:31.743Z,100.00
2023-01-30T02:11:04.299Z,100.00
2023-01-30T02:13:31.565Z,100.00
2023-01-30T02:15:58.570Z,100.00
2023-01-30T02:18:25.449Z,100.00
2023-01-30T02:21:03.812Z,100.00
2023-01-30T02:23:49.148Z,100.00
2023-01-30T02:26:24.787Z,100.00
2023-01-30T02:29:01.324Z,100.00
2023-01-30T02:31:32.721Z,100.00
2023-01-30T02:34:08.086Z,100.00
2023-01-30T02:36:40.488Z,100.00
2023-01-30T02:39:16.286Z,100.00
2023-01-30T02:41:48.660Z,100.00
2023-01-30T02:44:25.062Z,100.00
2023-01-30T02:46:54.158Z,100.00
2023-01-30T02:49:32.502Z,100.00
2023-01-30T02:52:00.301Z,100.00
2023-01-30T02:54:26.902Z,100.00
2023-01-30T02:56:54.743Z,100.00
2023-01-30T02:59:36.540Z,100.00
2023-01-30T03:02:11.884Z,100.00
2023-01-30T03:04:56.989Z,100.00
2023-01-30T03:07:41.495Z,100.00
2023-01-30T03:10:07.843Z,100.00
2023-01-30T03:12:43.247Z,100.00
2023-01-30T03:15:12.588Z,100.00
2023-01-30T03:17:40.704Z,100.00
2023-01-30T03:20:07.719Z,100.00
2023-01-30T03:22:33.965Z,100.00
2023-01-30T03:25:00.318Z,100.00
2023-01-30T03:27:27.055Z,100.00
2023-01-30T03:29:53.319Z,100.00
2023-01-30T03:32:19.622Z,100.00
2023-01-30T03:34:45.961Z,100.00
2023-01-30T03:37:12.315Z,100.00
2023-01-30T03:39:38.608Z,100.00
2023-01-30T03:42:05.046Z,100.00
2023-01-30T03:44:31.363Z,100.00
2023-01-30T03:46:57.603Z,100.00
2023-01-30T03:49:23.984Z,100.00
2023-01-30T03:51:50.307Z,100.00
2023-01-30T03:54:16.697Z,100.00
2023-01-30T03:56:43.032Z,100.00
2023-01-30T03:59:09.349Z,100.00
2023-01-30T04:01:35.702Z,100.00
2023-01-30T04:04:02.269Z,100.00
2023-01-30T04:06:28.556Z,100.00
2023-01-30T04:08:54.806Z,100.00
2023-01-30T04:11:21.615Z,100.00
2023-01-30T04:13:47.869Z,100.00
2023-01-30T04:16:22.023Z,100.00
2023-01-30T04:18:48.272Z,100.00
2023-01-30T04:21:14.883Z,100.00
2023-01-30T04:23:41.826Z,100.00
2023-01-30T04:26:08.454Z,100.00
2023-01-30T04:28:35.014Z,100.00
2023-01-30T04:31:01.847Z,100.00
2023-01-30T04:33:28.199Z,100.00
2023-01-30T04:35:55.443Z,100.00
2023-01-30T04:38:22.611Z,100.00
2023-01-30T04:40:52.727Z,100.00
2023-01-30T04:43:19.649Z,100.00
2023-01-30T04:45:46.488Z,100.00
2023-01-30T04:48:13.467Z,100.00
2023-01-30T04:50:40.676Z,100.00
2023-01-30T04:53:07.063Z,100.00
2023-01-30T04:55:33.294Z,100.00
2023-01-30T04:57:59.574Z,100.00
2023-01-30T05:00:26.097Z,100.00
2023-01-30T05:02:52.993Z,100.00
2023-01-30T05:05:19.603Z,100.00
2023-01-30T05:07:46.428Z,100.00
2023-01-30T05:10:12.741Z,100.00
2023-01-30T05:12:39.027Z,100.00
2023-01-30T05:15:06.842Z,100.00
2023-01-30T05:17:33.647Z,100.00
2023-01-30T05:19:59.936Z,100.00
2023-01-30T05:22:26.494Z,100.00
2023-01-30T05:24:52.913Z,100.00
2023-01-30T05:27:19.367Z,100.00
2023-01-30T05:29:45.672Z,100.00
2023-01-30T05:32:15.310Z,100.00
2023-01-30T05:34:41.594Z,100.00
2023-01-30T05:37:07.917Z,100.00
2023-01-30T05:39:34.239Z,100.00
2023-01-30T05:42:00.551Z,100.00
2023-01-30T05:44:26.915Z,100.00
2023-01-30T05:46:53.261Z,100.00
2023-01-30T05:49:19.607Z,100.00
2023-01-30T05:51:46.118Z,100.00
2023-01-30T05:54:12.445Z,100.00
2023-01-30T05:56:38.754Z,100.00
2023-01-30T05:59:05.162Z,100.00
2023-01-30T06:01:31.651Z,100.00
2023-01-30T06:03:58.575Z,100.00
2023-01-30T06:06:25.402Z,100.00
2023-01-30T06:08:55.605Z,100.00
2023-01-30T06:11:22.579Z,100.00
2023-01-30T06:13:49.400Z,100.00
2023-01-30T06:16:17.037Z,100.00
2023-01-30T06:18:43.388Z,100.00
2023-01-30T06:21:09.792Z,100.00
2023-01-30T06:23:36.120Z,100.00
2023-01-30T06:26:04.606Z,100.00
2023-01-30T06:28:31.789Z,100.00
2023-01-30T06:30:58.102Z,100.00
2023-01-30T06:33:24.402Z,100.00
2023-01-30T06:35:51.396Z,100.00
2023-01-30T06:38:17.923Z,100.00
2023-01-30T06:40:45.395Z,100.00
2023-01-30T06:43:11.960Z,100.00
2023-01-30T06:45:38.239Z,100.00
2023-01-30T06:48:04.791Z,100.00
2023-01-30T06:50:32.134Z,100.00
2023-01-30T06:52:58.546Z,100.00
2023-01-30T06:55:25.912Z,100.00
2023-01-30T06:58:08.542Z,100.00
2023-01-30T07:00:35.566Z,100.00
2023-01-30T07:03:02.390Z,100.00
2023-01-30T07:05:29.025Z,100.00
2023-01-30T07:07:55.327Z,100.00
2023-01-30T07:10:21.664Z,100.00
2023-01-30T07:12:48.170Z,100.00
2023-01-30T07:15:14.512Z,100.00
2023-01-30T07:17:41.764Z,100.00
2023-01-30T07:20:09.300Z,100.00
2023-01-30T07:22:35.622Z,100.00
2023-01-30T07:25:01.871Z,100.00
2023-01-30T07:27:28.198Z,100.00
2023-01-30T07:29:54.520Z,100.00
2023-01-30T07:32:20.867Z,100.00
2023-01-30T07:34:47.372Z,100.00
2023-01-30T07:37:13.703Z,100.00
2023-01-30T07:39:40.044Z,100.00
2023-01-30T07:42:06.475Z,100.00
2023-01-30T07:44:33.980Z,100.00
2023-01-30T07:47:00.824Z,100.00
2023-01-30T07:49:27.296Z,100.00
2023-01-30T07:51:53.586Z,100.00
2023-01-30T07:54:19.922Z,100.00
2023-01-30T07:56:46.227Z,100.00
2023-01-30T07:59:12.539Z,100.00
2023-01-30T08:01:39.275Z,100.00
2023-01-30T08:04:05.710Z,100.00
2023-01-30T08:06:32.230Z,100.00
2023-01-30T08:08:58.500Z,100.00
2023-01-30T08:11:24.975Z,100.00
2023-01-30T08:13:51.287Z,100.00
2023-01-30T08:16:17.657Z,100.00
2023-01-30T08:18:44.275Z,100.00
2023-01-30T08:21:11.374Z,100.00
2023-01-30T08:23:37.670Z,100.00
2023-01-30T08:26:04.920Z,100.00
2023-01-30T08:28:31.411Z,100.00
2023-01-30T08:30:58.065Z,100.00
2023-01-30T08:33:24.718Z,100.00
2023-01-30T08:35:51.347Z,100.00
2023-01-30T08:38:17.746Z,100.00
2023-01-30T08:40:44.452Z,100.00
2023-01-30T08:43:11.519Z,100.00
2023-01-30T08:45:37.971Z,100.00
2023-01-30T08:48:05.697Z,100.00
2023-01-30T08:50:32.712Z,100.00
2023-01-30T08:53:03.501Z,100.00
2023-01-30T08:55:29.903Z,100.00
2023-01-30T08:57:56.443Z,100.00
2023-01-30T09:00:22.931Z,100.00
2023-01-30T09:02:52.483Z,100.00
2023-01-30T09:05:18.828Z,100.00
2023-01-30T09:07:45.194Z,100.00
2023-01-30T09:10:11.735Z,100.00
2023-01-30T09:12:38.096Z,100.00
2023-01-30T09:15:04.649Z,100.00
2023-01-30T09:17:30.910Z,100.00
2023-01-30T09:19:57.256Z,100.00
2023-01-30T09:22:23.728Z,100.00
2023-01-30T09:24:50.075Z,100.00
2023-01-30T09:27:16.333Z,100.00
2023-01-30T09:29:44.361Z,100.00
2023-01-30T09:32:11.710Z,100.00
2023-01-30T09:34:38.010Z,100.00
2023-01-30T09:37:05.082Z,100.00
2023-01-30T09:39:31.821Z,100.00
2023-01-30T09:42:16.708Z,100.00
2023-01-30T09:44:43.127Z,100.00
2023-01-30T09:47:13.312Z,100.00
2023-01-30T09:49:59.879Z,100.00
2023-01-30T09:52:26.461Z,100.00
2023-01-30T09:54:56.887Z,100.00
2023-01-30T09:57:24.615Z,100.00
2023-01-30T09:59:53.713Z,100.00
2023-01-30T10:02:29.197Z,100.00
2023-01-30T10:05:01.851Z,100.00
2023-01-30T10:07:52.020Z,100.00
2023-01-30T10:10:30.742Z,100.00
2023-01-30T10:13:07.321Z,100.00
2023-01-30T10:15:36.722Z,100.00
2023-01-30T10:18:03.032Z,100.00
2023-01-30T10:20:33.003Z,100.00
2023-01-30T10:23:08.173Z,100.00
2023-01-30T10:25:34.478Z,100.00
2023-01-30T10:28:06.659Z,100.00
2023-01-30T10:30:34.024Z,100.00
2023-01-30T10:33:13.384Z,100.00
2023-01-30T10:35:42.118Z,100.00
2023-01-30T10:38:28.753Z,100.00
2023-01-30T10:41:00.697Z,100.00
2023-01-30T10:43:36.200Z,100.00
2023-01-30T10:46:17.869Z,100.00
2023-01-30T10:48:59.059Z,100.00
2023-01-30T10:51:31.337Z,100.00
2023-01-30T10:53:57.734Z,100.00
2023-01-30T10:56:30.209Z,100.00
2023-01-30T10:59:14.894Z,100.00
2023-01-30T11:01:45.091Z,100.00
2023-01-30T11:04:17.297Z,100.00
2023-01-30T11:06:43.748Z,100.00
2023-01-30T11:09:10.190Z,100.00
2023-01-30T11:11:42.547Z,100.00
2023-01-30T11:14:09.938Z,100.00
2023-01-30T11:16:56.737Z,100.00
2023-01-30T11:19:31.467Z,100.00
2023-01-30T11:22:01.472Z,100.00
2023-01-30T11:24:32.062Z,96.95
2023-01-30T11:27:21.409Z,96.66
2023-01-30T11:29:50.227Z,97.33
2023-01-30T11:32:22.903Z,96.10
2023-01-30T11:35:02.427Z,95.76
2023-01-30T11:37:39.168Z,93.40
2023-01-30T11:40:17.810Z,90.44
2023-01-30T11:42:45.975Z,94.21
2023-01-30T11:45:17.658Z,90.56
2023-01-30T11:47:58.853Z,89.54
2023-01-30T11:50:35.190Z,92.05
2023-01-30T11:53:05.007Z,89.60
2023-01-30T11:55:34.038Z,86.87
2023-01-30T11:58:01.596Z,89.51
2023-01-30T12:00:37.260Z,88.25
2023-01-30T12:03:05.921Z,88.78
2023-01-30T12:05:34.805Z,85.22
2023-01-30T12:08:13.916Z,88.43
2023-01-30T12:10:42.507Z,80.50
2023-01-30T12:13:22.027Z,83.67
2023-01-30T12:15:52.842Z,81.56
2023-01-30T12:18:43.536Z,79.46
2023-01-30T12:21:17.359Z,81.84
2023-01-30T12:23:52.529Z,77.04
2023-01-30T12:26:18.755Z,79.21
2023-01-30T12:28:51.410Z,80.26
2023-01-30T12:31:24.959Z,82.63
2023-01-30T12:33:51.415Z,82.07
2023-01-30T12:36:36.162Z,82.64
2023-01-30T12:39:05.646Z,80.99
2023-01-30T12:41:42.537Z,80.50
2023-01-30T12:44:44.371Z,80.40
2023-01-30T12:47:16.650Z,82.59
2023-01-30T12:49:55.228Z,82.30
2023-01-30T12:52:41.687Z,85.10
2023-01-30T12:55:18.944Z,81.84
2023-01-30T12:57:47.919Z,83.77
2023-01-30T13:00:26.447Z,83.25
2023-01-30T13:03:11.114Z,81.98
2023-01-30T13:05:40.393Z,82.91
2023-01-30T13:08:06.995Z,79.22
2023-01-30T13:10:39.643Z,76.34
2023-01-30T13:13:12.001Z,77.07
2023-01-30T13:15:56.887Z,79.50
2023-01-30T13:18:42.198Z,79.53
2023-01-30T13:21:08.539Z,79.04
2023-01-30T13:23:41.405Z,80.95
2023-01-30T13:26:10.228Z,80.30
2023-01-30T13:29:40.219Z,100.00
2023-01-30T13:32:33.160Z,80.30
2023-01-30T13:35:00.620Z,82.47
2023-01-30T13:37:27.363Z,87.70
2023-01-30T13:40:03.462Z,83.44
2023-01-30T13:43:30.310Z,100.00
2023-01-30T13:46:37.636Z,83.44
2023-01-30T13:49:06.738Z,82.71
2023-01-30T13:51:41.651Z,81.48
2023-01-30T13:54:25.716Z,84.25
2023-01-30T13:56:56.647Z,85.31
2023-01-30T13:59:41.872Z,82.71
2023-01-30T14:02:10.401Z,80.94
2023-01-30T14:04:44.765Z,81.48
2023-01-30T14:07:26.417Z,81.59
2023-01-30T14:10:16.249Z,82.49
2023-01-30T14:12:49.994Z,81.90
2023-01-30T14:15:16.711Z,84.91
2023-01-30T14:17:59.068Z,84.51
2023-01-30T14:20:26.926Z,82.08
2023-01-30T14:22:55.324Z,82.35
2023-01-30T14:25:27.824Z,81.73
2023-01-30T14:28:00.294Z,81.67
2023-01-30T14:30:32.827Z,83.34
2023-01-30T14:33:00.502Z,81.97
2023-01-30T14:35:35.593Z,83.63
2023-01-30T14:38:13.074Z,83.15
2023-01-30T14:40:43.565Z,85.89
2023-01-30T14:43:12.619Z,88.82
2023-01-30T14:45:45.119Z,89.11
2023-01-30T14:48:32.175Z,85.85
2023-01-30T14:51:17.069Z,84.71
2023-01-30T14:53:49.476Z,85.71
2023-01-30T14:56:16.106Z,86.25
2023-01-30T14:58:59.970Z,84.37
2023-01-30T15:01:26.426Z,84.50
2023-01-30T15:03:52.915Z,88.50
2023-01-30T15:06:20.281Z,86.25
2023-01-30T15:08:47.048Z,89.49
2023-01-30T15:11:30.408Z,87.77
2023-01-30T15:13:56.759Z,87.39
2023-01-30T15:16:38.545Z,88.08
2023-01-30T15:19:15.458Z,89.23
2023-01-30T15:21:41.749Z,89.14
2023-01-30T15:24:26.406Z,89.87
2023-01-30T15:27:07.204Z,90.76
2023-01-30T15:29:54.058Z,89.20
2023-01-30T15:32:21.919Z,89.22
2023-01-30T15:34:52.104Z,90.05
2023-01-30T15:37:31.931Z,90.66
2023-01-30T15:40:16.566Z,90.20
2023-01-30T15:42:48.489Z,91.96
2023-01-30T15:45:30.039Z,89.89
2023-01-30T15:48:04.908Z,88.23
2023-01-30T15:50:31.429Z,89.73
2023-01-30T15:52:58.849Z,89.96
2023-01-30T15:55:29.896Z,88.50
2023-01-30T15:57:58.544Z,88.75
2023-01-30T16:00:30.401Z,89.47
2023-01-30T16:02:57.559Z,86.67
2023-01-30T16:05:25.614Z,87.18
2023-01-30T16:07:53.507Z,89.26
2023-01-30T16:11:32.150Z,100.00
2023-01-30T16:13:58.989Z,91.35
2023-01-30T16:16:26.348Z,90.99
2023-01-30T16:18:57.383Z,92.55
2023-01-30T16:21:45.900Z,92.34
2023-01-30T16:24:16.275Z,91.62
2023-01-30T16:26:45.214Z,91.86
2023-01-30T16:29:19.570Z,90.90
2023-01-30T16:31:49.423Z,90.75
2023-01-30T16:34:32.569Z,91.92
2023-01-30T16:37:07.620Z,91.75
2023-01-30T16:39:35.844Z,93.62
2023-01-30T16:42:03.298Z,95.37
2023-01-30T16:44:30.608Z,95.28
2023-01-30T16:46:59.020Z,95.84
2023-01-30T16:49:31.481Z,96.35
2023-01-30T16:52:16.766Z,98.40
2023-01-30T16:54:51.892Z,98.93
2023-01-30T16:57:36.432Z,99.83
2023-01-30T17:00:07.002Z,99.10
2023-01-30T17:02:35.341Z,100.00
2023-01-30T17:05:31.082Z,100.00
2023-01-30T17:07:58.015Z,100.00
2023-01-30T17:10:39.748Z,100.00
2023-01-30T17:13:29.484Z,100.00
2023-01-30T17:16:16.269Z,100.00
2023-01-30T17:18:42.783Z,100.00
2023-01-30T17:21:13.491Z,100.00
2023-01-30T17:23:42.272Z,100.00
2023-01-30T17:26:11.356Z,100.00
2023-01-30T17:28:39.699Z,100.00
2023-01-30T17:31:06.310Z,100.00
2023-01-30T17:33:33.040Z,100.00
2023-01-30T17:36:01.116Z,100.00
2023-01-30T17:38:27.506Z,100.00
2023-01-30T17:40:53.848Z,100.00
2023-01-30T17:43:20.113Z,100.00
2023-01-30T17:45:47.092Z,100.00
2023-01-30T17:48:13.484Z,100.00
2023-01-30T17:50:39.960Z,100.00
2023-01-30T17:53:06.517Z,100.00
2023-01-30T17:55:34.222Z,100.00
2023-01-30T17:58:03.705Z,100.00
2023-01-30T18:00:33.228Z,100.00
2023-01-30T18:02:59.601Z,100.00
2023-01-30T18:05:26.016Z,100.00
2023-01-30T18:07:52.802Z,100.00
2023-01-30T18:10:19.818Z,100.00
2023-01-30T18:12:46.842Z,100.00
2023-01-30T18:15:15.155Z,100.00
2023-01-30T18:17:43.883Z,100.00
2023-01-30T18:20:12.408Z,100.00
2023-01-30T18:22:39.102Z,100.00
2023-01-30T18:25:05.920Z,100.00
2023-01-30T18:27:32.225Z,100.00
2023-01-30T18:29:58.538Z,100.00
2023-01-30T18:32:25.245Z,100.00
2023-01-30T18:34:51.720Z,100.00
2023-01-30T18:37:18.200Z,100.00
2023-01-30T18:39:44.533Z,100.00
2023-01-30T18:42:11.126Z,100.00
2023-01-30T18:44:37.953Z,100.00
2023-01-30T18:47:04.876Z,100.00
2023-01-30T18:49:31.225Z,100.00
2023-01-30T18:51:58.158Z,100.00
2023-01-30T18:54:26.228Z,100.00
2023-01-30T18:56:52.660Z,100.00
2023-01-30T18:59:20.926Z,100.00
2023-01-30T19:01:47.352Z,100.00
2023-01-30T19:04:14.065Z,100.00
2023-01-30T19:06:41.950Z,100.00
2023-01-30T19:09:12.270Z,100.00
2023-01-30T19:12:11.107Z,100.00
2023-01-30T19:14:37.444Z,100.00
2023-01-30T19:17:03.813Z,100.00
2023-01-30T19:19:30.352Z,100.00
2023-01-30T19:21:56.773Z,100.00
2023-01-30T19:24:23.784Z,100.00
2023-01-30T19:26:50.496Z,100.00
2023-01-30T19:29:18.213Z,100.00
2023-01-30T19:31:47.172Z,100.00
2023-01-30T19:34:13.921Z,100.00
2023-01-30T19:36:41.569Z,100.00
2023-01-30T19:39:09.876Z,100.00
2023-01-30T19:41:36.819Z,100.00
2023-01-30T19:44:04.634Z,100.00
2023-01-30T19:46:31.164Z,100.00
2023-01-30T19:48:57.903Z,100.00
2023-01-30T19:51:28.781Z,100.00
2023-01-30T19:53:56.454Z,100.00
2023-01-30T19:56:24.995Z,100.00
2023-01-30T19:58:51.994Z,100.00
2023-01-30T20:01:19.668Z,100.00
2023-01-30T20:03:47.138Z,100.00
2023-01-30T20:06:14.496Z,100.00
2023-01-30T20:08:41.636Z,100.00
2023-01-30T20:11:09.799Z,100.00
2023-01-30T20:13:37.373Z,100.00
2023-01-30T20:16:06.476Z,100.00
2023-01-30T20:18:35.357Z,100.00
2023-01-30T20:21:09.635Z,100.00
2023-01-30T20:23:36.557Z,100.00
2023-01-30T20:26:07.363Z,100.00
2023-01-30T20:28:34.527Z,100.00
2023-01-30T20:31:06.525Z,100.00
2023-01-30T20:33:32.813Z,100.00
2023-01-30T20:36:02.708Z,100.00
2023-01-30T20:38:33.171Z,100.00
2023-01-30T20:41:03.847Z,100.00
2023-01-30T20:43:33.468Z,100.00
2023-01-30T20:46:03.672Z,100.00
2023-01-30T20:48:30.104Z,100.00
2023-01-30T20:50:56.455Z,100.00
2023-01-30T20:53:22.692Z,100.00
2023-01-30T20:55:48.926Z,100.00
2023-01-30T20:58:17.140Z,100.00
2023-01-30T21:00:43.498Z,100.00
2023-01-30T21:03:09.823Z,100.00
2023-01-30T21:05:36.221Z,100.00
2023-01-30T21:08:02.552Z,100.00
2023-01-30T21:10:28.848Z,100.00
2023-01-30T21:12:55.160Z,100.00
2023-01-30T21:15:22.160Z,100.00
2023-01-30T21:17:48.460Z,100.00
2023-01-30T21:20:15.122Z,100.00
2023-01-30T21:22:41.433Z,100.00
2023-01-30T21:25:07.706Z,100.00
2023-01-30T21:27:33.956Z,100.00
2023-01-30T21:30:00.470Z,100.00
2023-01-30T21:32:26.751Z,100.00
2023-01-30T21:34:53.045Z,100.00
2023-01-30T21:37:37.951Z,100.00
2023-01-30T21:40:23.238Z,100.00
2023-01-30T21:43:08.179Z,100.00
2023-01-30T21:45:34.496Z,100.00
2023-01-30T21:48:00.807Z,100.00
2023-01-30T21:50:27.554Z,100.00
2023-01-30T21:52:53.937Z,100.00
2023-01-30T21:55:20.608Z,100.00
2023-01-30T21:57:47.094Z,100.00
2023-01-30T22:00:13.734Z,100.00
2023-01-30T22:02:40.090Z,100.00
2023-01-30T22:05:06.621Z,100.00
2023-01-30T22:07:32.915Z,100.00
2023-01-30T22:10:01.327Z,100.00
2023-01-30T22:12:27.647Z,100.00
2023-01-30T22:14:54.662Z,100.00
2023-01-30T22:17:21.111Z,100.00
2023-01-30T22:19:47.451Z,100.00
2023-01-30T22:22:13.878Z,100.00
2023-01-30T22:24:40.178Z,100.00
2023-01-30T22:27:06.462Z,100.00
2023-01-30T22:29:35.094Z,100.00
2023-01-30T22:32:01.401Z,100.00
2023-01-30T22:34:27.706Z,100.00
2023-01-30T22:36:54.404Z,100.00
2023-01-30T22:39:20.716Z,100.00
2023-01-30T22:41:47.018Z,100.00
2023-01-30T22:44:13.610Z,100.00
2023-01-30T22:46:40.341Z,100.00
2023-01-30T22:49:08.206Z,100.00
2023-01-30T22:51:35.962Z,100.00
2023-01-30T22:54:03.955Z,100.00
2023-01-30T22:56:31.503Z,100.00
2023-01-30T22:58:58.147Z,100.00
2023-01-30T23:01:31.684Z,100.00
2023-01-30T23:03:59.279Z,100.00
2023-01-30T23:06:25.946Z,100.00
2023-01-30T23:08:53.345Z,100.00
2023-01-30T23:11:24.535Z,100.00
2023-01-30T23:13:52.549Z,100.00
2023-01-30T23:16:20.090Z,100.00
2023-01-30T23:18:55.338Z,100.00
2023-01-30T23:21:26.580Z,100.00
2023-01-30T23:23:53.879Z,100.00
2023-01-30T23:26:21.101Z,100.00
2023-01-30T23:28:47.463Z,100.00
2023-01-30T23:31:15.594Z,100.00
2023-01-30T23:33:42.433Z,100.00
2023-01-30T23:36:10.164Z,100.00
2023-01-30T23:38:37.690Z,100.00
2023-01-30T23:41:27.232Z,100.00
2023-01-30T23:43:54.319Z,100.00
2023-01-30T23:46:20.766Z,100.00
2023-01-30T23:48:48.308Z,100.00
2023-01-30T23:51:15.410Z,100.00
2023-01-30T23:53:42.463Z,100.00
2023-01-30T23:56:09.475Z,100.00
2023-01-30T23:58:36.499Z,100.00
